Time;durP1;ratioP1;P1;durP2;ratioP2;P2;SDS_P1;SDS_P2;PMS_P1;PMS_P2;Temp;Humidity;BMP_temperature;BMP_pressure;BME280_temperature;BME280_humidity;BME280_pressure;Samples;Min_cycle;Max_cycle;Signal;HPM_P1;HPM_P2
2023/05/07 00:01:16;;;;;;;9.00;6.22;;;;;;;8.26;100.00;93318.19;5128081;27;20087;-78
2023/05/07 00:03:43;;;;;;;7.20;5.75;;;;;;;8.32;100.00;93324.31;5127640;27;20468;-77
2023/05/07 00:06:12;;;;;;;9.02;5.97;;;;;;;8.27;100.00;93320.56;5128337;28;20074;-77
2023/05/07 00:08:39;;;;;;;7.38;5.57;;;;;;;8.25;100.00;93322.50;5128854;28;20043;-77
2023/05/07 00:11:06;;;;;;;7.30;5.53;;;;;;;8.15;100.00;93328.00;5128307;28;20095;-77
2023/05/07 00:13:35;;;;;;;7.72;5.47;;;;;;;8.10;100.00;93325.22;5128454;28;20086;-77
2023/05/07 00:16:02;;;;;;;7.57;5.88;;;;;;;8.03;100.00;93326.97;5127851;28;20051;-77
2023/05/07 00:18:30;;;;;;;6.78;5.15;;;;;;;8.05;100.00;93329.34;5127705;28;20051;-77
2023/05/07 00:20:57;;;;;;;7.72;5.45;;;;;;;7.93;100.00;93322.22;5127830;28;20119;-78
2023/05/07 00:23:24;;;;;;;7.45;5.38;;;;;;;7.88;100.00;93316.88;5128212;28;20089;-77
2023/05/07 00:25:53;;;;;;;7.28;5.63;;;;;;;7.93;100.00;93332.44;5127902;28;20051;-77
2023/05/07 00:28:20;;;;;;;8.70;5.70;;;;;;;7.93;100.00;93337.56;5127694;28;20044;-77
2023/05/07 00:30:47;;;;;;;7.82;5.72;;;;;;;7.91;100.00;93333.63;5127915;28;20058;-77
2023/05/07 00:33:13;;;;;;;7.68;5.45;;;;;;;7.86;100.00;93322.19;5127330;28;20487;-77
2023/05/07 00:35:43;;;;;;;7.15;5.05;;;;;;;7.85;100.00;93328.28;5127662;28;20495;-77
2023/05/07 00:38:09;;;;;;;8.35;5.38;;;;;;;7.83;100.00;93327.66;5127773;28;20046;-77
2023/05/07 00:40:36;;;;;;;8.68;5.75;;;;;;;7.78;100.00;93324.88;5128245;28;20055;-77
2023/05/07 00:43:03;;;;;;;7.78;5.75;;;;;;;7.82;100.00;93325.31;5127718;28;20054;-77
2023/05/07 00:45:30;;;;;;;8.25;5.70;;;;;;;7.84;100.00;93323.34;5128030;28;20081;-77
2023/05/07 00:48:00;;;;;;;6.88;5.65;;;;;;;7.81;100.00;93321.16;5127625;28;20419;-77
2023/05/07 00:50:27;;;;;;;7.18;5.80;;;;;;;7.80;100.00;93317.81;5127924;28;20088;-77
2023/05/07 00:52:56;;;;;;;8.30;5.82;;;;;;;7.82;100.00;93323.53;5128527;27;20096;-77
2023/05/07 00:55:23;;;;;;;8.30;5.75;;;;;;;7.79;100.00;93325.69;5131673;27;20050;-77
2023/05/07 00:57:51;;;;;;;7.78;5.18;;;;;;;7.73;100.00;93315.22;5131997;27;20047;-77
2023/05/07 01:00:19;;;;;;;8.20;5.28;;;;;;;7.74;100.00;93328.81;5131567;27;20430;-77
2023/05/07 01:02:46;;;;;;;6.43;4.93;;;;;;;7.68;100.00;93327.78;5131209;27;20051;-77
2023/05/07 01:05:15;;;;;;;7.38;5.10;;;;;;;7.43;100.00;93309.53;5131640;27;20039;-77
2023/05/07 01:07:43;;;;;;;7.72;5.10;;;;;;;7.42;100.00;93325.88;5131622;27;20043;-77
2023/05/07 01:10:12;;;;;;;7.85;5.75;;;;;;;7.30;100.00;93318.72;5131218;27;20503;-77
2023/05/07 01:12:42;;;;;;;6.05;5.07;;;;;;;7.29;100.00;93324.00;5131156;27;20043;-77
2023/05/07 01:15:10;;;;;;;8.15;4.93;;;;;;;7.25;100.00;93322.78;5131903;27;20051;-77
2023/05/07 01:17:38;;;;;;;6.72;5.07;;;;;;;7.20;100.00;93315.69;5131434;27;20035;-77
2023/05/07 01:20:06;;;;;;;7.40;5.45;;;;;;;7.17;100.00;93313.53;5131362;27;20047;-77
2023/05/07 01:22:36;;;;;;;8.52;6.03;;;;;;;7.21;100.00;93327.47;5131085;27;20054;-78
2023/05/07 01:25:03;;;;;;;8.98;5.78;;;;;;;7.20;100.00;93319.06;5131027;27;20043;-77
2023/05/07 01:27:35;;;;;;;6.53;5.07;;;;;;;7.15;100.00;93315.47;5131236;27;20042;-77
2023/05/07 01:30:02;;;;;;;8.18;4.90;;;;;;;7.03;100.00;93312.63;5131037;27;20403;-78
2023/05/07 01:32:33;;;;;;;7.05;5.32;;;;;;;7.08;100.00;93321.31;5130585;27;20096;-75
2023/05/07 01:35:02;;;;;;;7.50;5.57;;;;;;;7.07;100.00;93311.28;5130951;27;20053;-76
2023/05/07 01:37:29;;;;;;;7.80;5.68;;;;;;;7.03;100.00;93308.31;5130715;27;20053;-75
2023/05/07 01:39:58;;;;;;;9.43;5.68;;;;;;;7.13;100.00;93310.53;5130916;27;20058;-75
2023/05/07 01:42:25;;;;;;;7.78;5.60;;;;;;;7.12;100.00;93306.41;5130765;27;20043;-76
2023/05/07 01:44:52;;;;;;;6.97;5.50;;;;;;;7.14;100.00;93307.03;5130337;27;20072;-76
2023/05/07 01:47:21;;;;;;;10.60;5.38;;;;;;;7.12;100.00;93318.41;5130423;27;20115;-77
2023/05/07 01:49:48;;;;;;;7.00;5.82;;;;;;;7.10;100.00;93316.03;5131026;27;20457;-77
2023/05/07 01:52:15;;;;;;;7.30;5.65;;;;;;;7.01;100.00;93314.56;5131162;27;20107;-77
2023/05/07 01:54:42;;;;;;;7.65;6.03;;;;;;;7.01;100.00;93309.47;5131018;27;20070;-77
2023/05/07 01:57:10;;;;;;;8.07;5.55;;;;;;;6.87;100.00;93283.03;5130719;27;20047;-77
2023/05/07 01:59:37;;;;;;;8.25;6.50;;;;;;;6.71;100.00;93256.00;5130233;27;20054;-77
2023/05/07 02:02:04;;;;;;;7.88;6.10;;;;;;;6.98;100.00;93302.97;5130615;27;20111;-77
2023/05/07 02:04:30;;;;;;;18.45;12.15;;;;;;;6.94;100.00;93297.44;5130220;27;20586;-77
2023/05/07 02:06:57;;;;;;;9.88;7.07;;;;;;;6.86;100.00;93297.56;5130499;27;20079;-77
2023/05/07 02:09:24;;;;;;;12.10;8.65;;;;;;;6.86;100.00;93291.66;5131058;27;20551;-78
2023/05/07 02:11:51;;;;;;;11.65;8.35;;;;;;;6.89;100.00;93296.41;5130555;27;20115;-77
2023/05/07 02:14:20;;;;;;;17.20;9.73;;;;;;;6.89;100.00;93294.63;5130615;27;20619;-77
2023/05/07 02:16:47;;;;;;;13.50;8.27;;;;;;;6.89;100.00;93284.44;5130179;27;20047;-78
2023/05/07 02:19:14;;;;;;;14.98;9.35;;;;;;;6.85;100.00;93279.88;5130109;27;20054;-77
2023/05/07 02:21:40;;;;;;;12.52;7.57;;;;;;;6.87;100.00;93285.59;5130702;27;20092;-78
2023/05/07 02:24:07;;;;;;;12.55;7.15;;;;;;;6.82;100.00;93281.03;5130360;27;20058;-77
2023/05/07 02:26:34;;;;;;;8.70;6.68;;;;;;;6.83;100.00;93287.72;5130254;27;20512;-77
2023/05/07 02:29:01;;;;;;;9.32;6.70;;;;;;;6.77;100.00;93285.91;5129622;27;20101;-77
2023/05/07 02:31:29;;;;;;;9.65;6.63;;;;;;;6.76;100.00;93289.44;5129969;27;20043;-77
2023/05/07 02:33:56;;;;;;;10.02;6.90;;;;;;;6.73;100.00;93289.78;5130167;27;20051;-77
2023/05/07 02:36:22;;;;;;;8.43;6.13;;;;;;;6.73;100.00;93293.16;5129887;27;20046;-77
2023/05/07 02:38:49;;;;;;;7.28;5.45;;;;;;;6.71;100.00;93281.53;5129807;27;20055;-77
2023/05/07 02:41:16;;;;;;;7.53;5.25;;;;;;;6.66;100.00;93290.53;5127516;27;20678;-77
2023/05/07 02:43:42;;;;;;;7.68;5.38;;;;;;;6.64;100.00;93279.72;5128880;27;20047;-77
2023/05/07 02:46:10;;;;;;;6.07;5.15;;;;;;;6.51;100.00;93271.94;5129429;27;20158;-77
2023/05/07 02:48:38;;;;;;;8.85;5.00;;;;;;;6.59;100.00;93288.88;5129702;27;20039;-76
2023/05/07 02:51:06;;;;;;;8.52;4.85;;;;;;;6.48;100.00;93285.84;5129470;27;20051;-77
2023/05/07 02:53:32;;;;;;;7.95;6.00;;;;;;;6.47;100.00;93296.25;5129372;27;20074;-76
2023/05/07 02:56:01;;;;;;;10.15;6.05;;;;;;;6.44;100.00;93292.31;5128019;28;20054;-76
2023/05/07 02:58:27;;;;;;;9.60;5.75;;;;;;;6.34;100.00;93287.47;5127945;28;20088;-76
2023/05/07 03:00:55;;;;;;;12.23;7.43;;;;;;;6.38;100.00;93296.34;5128322;28;20046;-77
2023/05/07 03:03:22;;;;;;;12.80;7.57;;;;;;;6.36;100.00;93300.88;5128158;28;20138;-77
2023/05/07 03:05:50;;;;;;;12.13;7.00;;;;;;;6.41;100.00;93297.75;5128309;28;20039;-78
2023/05/07 03:08:18;;;;;;;9.88;7.00;;;;;;;6.41;100.00;93298.56;5128026;28;20047;-77
2023/05/07 03:10:44;;;;;;;10.95;6.97;;;;;;;6.39;100.00;93292.06;5128298;28;20491;-77
2023/05/07 03:13:11;;;;;;;11.05;6.97;;;;;;;6.46;100.00;93303.09;5127682;28;20069;-77
2023/05/07 03:15:38;;;;;;;9.75;6.72;;;;;;;6.44;100.00;93307.63;5127317;27;20452;-77
2023/05/07 03:18:05;;;;;;;8.98;5.55;;;;;;;6.36;100.00;93298.31;5127976;28;20046;-77
2023/05/07 03:20:32;;;;;;;6.93;5.18;;;;;;;6.31;100.00;93303.16;5128173;28;20092;-77
2023/05/07 03:23:00;;;;;;;6.35;5.10;;;;;;;6.30;100.00;93313.53;5127880;28;20058;-77
2023/05/07 03:25:27;;;;;;;9.25;5.80;;;;;;;6.30;100.00;93311.00;5128464;28;20376;-77
2023/05/07 03:27:54;;;;;;;9.25;6.10;;;;;;;6.26;100.00;93315.66;5127883;28;20073;-77
2023/05/07 03:30:21;;;;;;;9.15;5.60;;;;;;;6.24;100.00;93323.50;5127532;28;20035;-77
2023/05/07 03:32:47;;;;;;;9.18;6.35;;;;;;;6.15;100.00;93320.25;5128035;28;20410;-77
2023/05/07 03:35:14;;;;;;;9.32;6.30;;;;;;;6.14;100.00;93325.53;5128019;28;20394;-77
2023/05/07 03:37:41;;;;;;;13.48;6.85;;;;;;;6.10;100.00;93322.56;5127574;28;20594;-77
2023/05/07 03:40:12;;;;;;;8.52;5.97;;;;;;;6.10;100.00;93322.56;5127738;28;20058;-76
2023/05/07 03:42:38;;;;;;;10.18;6.30;;;;;;;6.15;100.00;93327.09;5127417;28;20043;-76
2023/05/07 03:45:06;;;;;;;10.00;6.70;;;;;;;6.25;100.00;93337.06;5117657;28;20044;-76
2023/05/07 03:47:33;;;;;;;18.00;8.35;;;;;;;6.18;100.00;93318.31;5118873;28;20056;-76
2023/05/07 03:49:59;;;;;;;10.55;6.65;;;;;;;6.35;100.00;93342.63;5120435;28;20500;-76
2023/05/07 03:52:26;;;;;;;11.55;7.13;;;;;;;6.40;100.00;93339.56;5106874;28;20124;-77
2023/05/07 03:54:54;;;;;;;8.88;6.30;;;;;;;6.42;100.00;93332.50;4955016;27;4575344;-76
2023/05/07 03:57:22;;;;;;;10.75;6.05;;;;;;;6.39;100.00;93333.66;5119769;27;20055;-76
2023/05/07 03:59:53;;;;;;;8.45;6.15;;;;;;;6.52;100.00;93342.41;5101846;27;20039;-76
2023/05/07 04:02:20;;;;;;;9.10;6.10;;;;;;;6.52;100.00;93337.31;5113997;27;20139;-76
2023/05/07 04:04:49;;;;;;;9.38;6.07;;;;;;;6.65;100.00;93349.41;5107126;28;20052;-77
2023/05/07 04:07:16;;;;;;;9.85;5.80;;;;;;;6.67;100.00;93348.25;5106698;28;20124;-76
2023/05/07 04:09:42;;;;;;;7.43;5.50;;;;;;;6.74;100.00;93347.53;5109362;28;20050;-76
2023/05/07 04:12:09;;;;;;;9.20;5.68;;;;;;;6.77;100.00;93357.41;5106805;28;20043;-76
2023/05/07 04:14:37;;;;;;;10.13;7.80;;;;;;;6.81;100.00;93361.16;5108578;28;20062;-76
2023/05/07 04:17:05;;;;;;;12.80;9.98;;;;;;;6.84;100.00;93370.22;5126650;28;20441;-76
2023/05/07 04:19:34;;;;;;;12.95;9.30;;;;;;;6.89;100.00;93378.13;5119186;28;20071;-76
2023/05/07 04:22:01;;;;;;;11.30;7.90;;;;;;;6.91;100.00;93376.19;5125080;28;20100;-76
2023/05/07 04:24:28;;;;;;;12.75;8.40;;;;;;;6.82;100.00;93360.19;5120534;28;20074;-78
2023/05/07 04:26:54;;;;;;;10.55;7.88;;;;;;;6.98;100.00;93378.81;5126900;27;20411;-78
2023/05/07 04:29:21;;;;;;;10.50;8.02;;;;;;;7.07;100.00;93382.78;5130837;27;20047;-78
2023/05/07 04:31:49;;;;;;;12.80;8.48;;;;;;;7.07;100.00;93381.03;5131764;27;20066;-78
2023/05/07 04:34:16;;;;;;;16.27;8.25;;;;;;;7.24;100.00;93388.44;5132103;27;20047;-78
2023/05/07 04:36:43;;;;;;;12.27;8.27;;;;;;;7.33;100.00;93389.88;5131068;27;20043;-78
2023/05/07 04:39:10;;;;;;;25.65;9.90;;;;;;;7.47;100.00;93385.69;5129143;27;20597;-78
2023/05/07 04:41:37;;;;;;;16.23;8.80;;;;;;;7.55;100.00;93382.16;5129109;27;20039;-78
2023/05/07 04:44:05;;;;;;;10.55;8.20;;;;;;;7.67;100.00;93390.13;5131465;27;20074;-78
2023/05/07 04:46:32;;;;;;;20.30;12.65;;;;;;;7.75;100.00;93390.00;5131012;27;20043;-77
2023/05/07 04:49:00;;;;;;;14.93;10.45;;;;;;;7.82;100.00;93395.13;5131365;27;20096;-78
2023/05/07 04:51:27;;;;;;;16.13;10.73;;;;;;;7.94;100.00;93382.63;5121929;27;20059;-78
2023/05/07 04:53:55;;;;;;;17.48;11.10;;;;;;;8.08;100.00;93385.22;5101501;27;20060;-77
2023/05/07 04:56:21;;;;;;;15.25;10.32;;;;;;;8.25;100.00;93390.84;5111115;28;20135;-77
2023/05/07 04:58:48;;;;;;;16.15;10.07;;;;;;;8.39;100.00;93384.00;5110897;28;20044;-78
2023/05/07 05:01:15;;;;;;;17.90;9.50;;;;;;;8.57;100.00;93387.81;5102743;28;20344;-78
2023/05/07 05:03:41;;;;;;;14.25;9.30;;;;;;;8.73;100.00;93389.22;5110527;28;20048;-76
2023/05/07 05:06:10;;;;;;;16.85;9.50;;;;;;;8.92;100.00;93383.38;5110434;28;20100;-76
2023/05/07 05:08:37;;;;;;;21.90;10.90;;;;;;;9.06;100.00;93385.94;5109968;28;20043;-75
2023/05/07 05:11:04;;;;;;;14.93;9.60;;;;;;;9.06;100.00;93361.13;5110183;28;20051;-75
2023/05/07 05:13:31;;;;;;;21.73;10.68;;;;;;;9.41;100.00;93385.78;5109977;28;20054;-75
2023/05/07 05:15:57;;;;;;;15.60;8.68;;;;;;;9.56;100.00;93375.31;5109655;28;20055;-75
2023/05/07 05:18:24;;;;;;;15.88;9.32;;;;;;;9.75;100.00;93372.91;5110605;28;20158;-75
2023/05/07 05:20:52;;;;;;;15.65;9.48;;;;;;;10.00;100.00;93385.13;5110341;28;20605;-74
2023/05/07 05:23:20;;;;;;;19.23;9.75;;;;;;;10.23;100.00;93392.34;5109856;28;20048;-75
2023/05/07 05:25:47;;;;;;;23.10;10.88;;;;;;;10.43;100.00;93381.25;5110296;28;20171;-75
2023/05/07 05:28:14;;;;;;;24.85;12.43;;;;;;;10.65;100.00;93386.88;5110113;28;20051;-76
2023/05/07 05:30:41;;;;;;;26.55;14.27;;;;;;;10.78;100.00;93391.16;5110033;28;20503;-76
2023/05/07 05:33:07;;;;;;;25.60;14.00;;;;;;;11.01;100.00;93389.84;5110558;28;20453;-76
2023/05/07 05:35:35;;;;;;;33.70;17.45;;;;;;;11.25;100.00;93386.72;5110305;28;20051;-76
2023/05/07 05:38:02;;;;;;;38.35;17.52;;;;;;;11.44;100.00;93383.19;5109738;28;20051;-76
2023/05/07 05:40:30;;;;;;;38.25;17.65;;;;;;;11.66;100.00;93379.47;5109631;28;20051;-76
2023/05/07 05:42:56;;;;;;;32.55;17.67;;;;;;;11.93;100.00;93394.69;5109919;27;20056;-76
2023/05/07 05:45:23;;;;;;;35.67;19.55;;;;;;;12.04;100.00;93396.56;5109822;28;20047;-76
2023/05/07 05:47:50;;;;;;;25.50;12.68;;;;;;;12.23;100.00;93391.41;5110251;28;20435;-76
2023/05/07 05:50:17;;;;;;;27.90;14.73;;;;;;;12.50;100.00;93393.69;5109736;28;20058;-76
2023/05/07 05:52:44;;;;;;;28.30;15.27;;;;;;;12.70;100.00;93396.78;5109389;28;20039;-76
2023/05/07 05:55:10;;;;;;;28.35;13.48;;;;;;;12.99;98.67;93391.06;5112993;27;20086;-75
2023/05/07 05:57:39;;;;;;;29.73;15.43;;;;;;;13.22;95.50;93397.31;5117985;27;20062;-75
2023/05/07 06:00:07;;;;;;;26.25;13.38;;;;;;;13.39;95.07;93392.28;5126975;27;20047;-75
2023/05/07 06:02:34;;;;;;;30.98;14.70;;;;;;;13.80;91.78;93400.19;5130057;27;20141;-75
2023/05/07 06:05:01;;;;;;;32.78;15.55;;;;;;;13.94;91.26;93387.06;5130011;27;20043;-75
2023/05/07 06:07:28;;;;;;;32.70;15.07;;;;;;;14.27;90.38;93396.00;5129418;27;20039;-76
2023/05/07 06:09:55;;;;;;;35.95;17.38;;;;;;;14.24;89.48;93397.25;5129616;27;20048;-75
2023/05/07 06:12:22;;;;;;;35.38;16.05;;;;;;;14.45;89.98;93377.00;5129699;27;20505;-75
2023/05/07 06:14:50;;;;;;;31.20;16.27;;;;;;;14.78;89.09;93385.09;5114774;27;20071;-75
2023/05/07 06:17:16;;;;;;;33.03;15.80;;;;;;;15.18;87.63;93386.81;5129740;27;20487;-75
2023/05/07 06:19:43;;;;;;;36.10;16.00;;;;;;;15.37;85.06;93386.63;5129956;27;20051;-75
2023/05/07 06:22:10;;;;;;;30.10;14.90;;;;;;;15.69;84.49;93387.88;5129059;27;20096;-75
2023/05/07 06:24:37;;;;;;;29.90;13.55;;;;;;;15.84;82.57;93385.47;5128832;27;20487;-75
2023/05/07 06:27:04;;;;;;;26.90;12.25;;;;;;;16.03;80.57;93391.19;5129621;27;20040;-75
2023/05/07 06:29:32;;;;;;;24.38;10.13;;;;;;;16.38;80.12;93383.38;5129295;27;20313;-75
2023/05/07 06:32:07;;;;;;;21.50;9.55;;;;;;;15.82;78.96;93384.94;5129372;27;20043;-75
2023/05/07 06:34:34;;;;;;;25.10;9.70;;;;;;;16.00;78.69;93383.13;5129261;27;20066;-76
2023/05/07 06:37:01;;;;;;;20.92;8.88;;;;;;;16.38;80.19;93378.19;5125508;27;20051;-77
2023/05/07 06:39:28;;;;;;;20.90;9.38;;;;;;;16.23;78.13;93373.56;5111610;27;20043;-76
2023/05/07 06:41:55;;;;;;;18.52;7.85;;;;;;;16.29;76.98;93367.41;5129093;27;20043;-76
2023/05/07 06:44:21;;;;;;;16.25;6.90;;;;;;;16.20;75.77;93372.25;5128388;27;20099;-77
2023/05/07 06:46:48;;;;;;;16.27;7.40;;;;;;;16.58;77.18;93369.84;5129214;27;20039;-76
2023/05/07 06:49:16;;;;;;;16.15;7.65;;;;;;;17.13;76.27;93366.50;5129064;27;20035;-76
2023/05/07 06:51:43;;;;;;;21.88;8.25;;;;;;;17.59;74.18;93359.06;5127655;27;20043;-76
2023/05/07 06:54:11;;;;;;;14.60;6.65;;;;;;;17.75;71.61;93362.56;5128494;27;20055;-76
2023/05/07 06:56:38;;;;;;;14.27;6.70;;;;;;;17.23;70.98;93359.56;5128903;27;20085;-76
2023/05/07 06:59:05;;;;;;;11.63;5.53;;;;;;;17.33;73.49;93364.09;5128811;27;20039;-76
2023/05/07 07:01:39;;;;;;;17.05;6.25;;;;;;;16.95;70.18;93338.03;5128277;27;20047;-76
2023/05/07 07:04:06;;;;;;;13.73;5.18;;;;;;;17.52;70.03;93362.91;5128264;27;20046;-76
2023/05/07 07:06:34;;;;;;;14.07;5.78;;;;;;;17.42;70.31;93364.41;5128349;27;20047;-76
2023/05/07 07:09:01;;;;;;;11.68;5.78;;;;;;;17.65;72.50;93365.09;5129421;27;20780;-77
2023/05/07 07:11:28;;;;;;;14.48;5.68;;;;;;;17.89;70.33;93362.91;5115189;27;20054;-77
2023/05/07 07:13:55;;;;;;;8.73;4.35;;;;;;;17.86;69.02;93362.59;5110035;27;20047;-77
2023/05/07 07:16:22;;;;;;;13.13;5.07;;;;;;;17.76;71.07;93364.13;5111189;27;20829;-76
2023/05/07 07:18:48;;;;;;;11.05;4.95;;;;;;;18.09;68.57;93358.09;5128929;27;20047;-76
2023/05/07 07:21:15;;;;;;;12.70;5.05;;;;;;;18.68;70.17;93353.63;5128421;27;20468;-76
2023/05/07 07:23:43;;;;;;;14.57;5.80;;;;;;;19.27;69.38;93359.47;5118174;27;20588;-77
2023/05/07 07:26:10;;;;;;;9.70;4.95;;;;;;;19.03;62.73;93359.16;5125412;27;20573;-77
2023/05/07 07:28:43;;;;;;;8.27;4.28;;;;;;;18.83;61.81;93335.44;5129003;27;20186;-77
2023/05/07 07:31:10;;;;;;;8.25;3.75;;;;;;;18.52;61.10;93358.00;5128206;27;20125;-78
2023/05/07 07:33:37;;;;;;;8.38;3.83;;;;;;;18.79;61.81;93357.03;5128232;27;20086;-77
2023/05/07 07:36:05;;;;;;;11.13;4.45;;;;;;;19.19;61.54;93345.13;5123141;27;20180;-78
2023/05/07 07:38:31;;;;;;;7.78;4.10;;;;;;;19.34;59.61;93357.38;5120222;27;20530;-76
2023/05/07 07:41:01;;;;;;;6.07;3.35;;;;;;;19.09;58.80;93358.94;5128448;27;20043;-76
2023/05/07 07:43:27;;;;;;;5.35;2.80;;;;;;;18.64;57.24;93365.56;5115391;27;20051;-76
2023/05/07 07:45:54;;;;;;;8.50;3.50;;;;;;;18.85;61.51;93363.03;5128023;27;20095;-76
2023/05/07 07:48:21;;;;;;;9.52;4.20;;;;;;;18.35;60.13;93374.59;5127776;27;20091;-76
2023/05/07 07:50:50;;;;;;;5.57;3.10;;;;;;;19.00;59.80;93376.06;5101076;27;20043;-76
2023/05/07 07:53:16;;;;;;;12.07;3.97;;;;;;;19.42;60.49;93374.31;5127774;27;20100;-77
2023/05/07 07:55:43;;;;;;;8.88;3.20;;;;;;;19.83;61.23;93373.50;5128128;27;20507;-77
2023/05/07 07:58:11;;;;;;;7.32;3.42;;;;;;;19.47;55.55;93370.91;5128034;27;20047;-77
2023/05/07 08:00:38;;;;;;;5.45;3.13;;;;;;;19.38;55.89;93375.09;5127748;27;20081;-76
2023/05/07 08:03:06;;;;;;;7.82;3.65;;;;;;;19.14;58.92;93368.56;5127384;27;20051;-77
2023/05/07 08:05:33;;;;;;;10.93;4.35;;;;;;;19.32;59.67;93364.69;5128139;27;20039;-76
2023/05/07 08:07:59;;;;;;;8.48;3.45;;;;;;;19.50;57.45;93365.97;5128404;27;20047;-76
2023/05/07 08:10:26;;;;;;;11.23;3.88;;;;;;;19.23;58.07;93355.81;5128095;28;20039;-76
2023/05/07 08:12:53;;;;;;;9.82;4.28;;;;;;;19.63;58.04;93362.03;5128270;28;20051;-76
2023/05/07 08:15:21;;;;;;;6.45;3.05;;;;;;;19.58;57.07;93367.25;5113088;28;20039;-76
2023/05/07 08:17:48;;;;;;;10.73;4.15;;;;;;;20.12;59.83;93354.69;5127951;28;20050;-76
2023/05/07 08:20:15;;;;;;;9.35;3.42;;;;;;;20.22;55.35;93351.25;5127643;28;20050;-76
2023/05/07 08:22:41;;;;;;;6.95;3.42;;;;;;;20.62;57.16;93353.19;5127206;28;20056;-76
2023/05/07 08:25:09;;;;;;;9.35;3.67;;;;;;;20.07;60.76;93357.31;5113495;28;20043;-77
2023/05/07 08:27:36;;;;;;;8.82;3.63;;;;;;;19.84;59.73;93353.41;5127957;28;20142;-77
2023/05/07 08:30:03;;;;;;;5.65;2.97;;;;;;;20.18;54.39;93368.47;5127584;28;20060;-76
2023/05/07 08:32:31;;;;;;;4.63;2.95;;;;;;;20.66;55.90;93351.59;5127651;28;20279;-77
2023/05/07 08:34:58;;;;;;;8.07;3.55;;;;;;;20.29;57.79;93324.91;5127637;28;20043;-77
2023/05/07 08:37:25;;;;;;;6.85;2.88;;;;;;;20.39;54.62;93352.75;5127933;28;20047;-76
2023/05/07 08:39:52;;;;;;;9.68;4.10;;;;;;;20.33;56.46;93349.41;5127584;28;20135;-77
2023/05/07 08:42:21;;;;;;;17.13;4.45;;;;;;;21.07;56.87;93342.78;5127815;28;20167;-76
2023/05/07 08:44:52;;;;;;;12.52;3.60;;;;;;;21.53;52.41;93357.31;5126968;28;20047;-77
2023/05/07 08:47:20;;;;;;;11.88;3.50;;;;;;;21.42;51.88;93342.78;5126295;28;20070;-77
2023/05/07 08:49:49;;;;;;;9.18;3.30;;;;;;;22.12;53.44;93343.47;5127862;28;20438;-77
2023/05/07 08:52:16;;;;;;;21.20;11.30;;;;;;;21.47;52.72;93330.44;5127724;28;20472;-78
2023/05/07 08:54:44;;;;;;;20.70;11.75;;;;;;;21.34;53.20;93333.69;5127949;28;20077;-77
2023/05/07 08:57:10;;;;;;;8.70;4.22;;;;;;;21.14;52.89;93335.41;5125586;28;20051;-77
2023/05/07 08:59:37;;;;;;;12.27;4.80;;;;;;;21.78;56.51;93320.78;5116388;28;20688;-77
2023/05/07 09:02:05;;;;;;;11.65;3.88;;;;;;;22.31;53.87;93300.84;5122398;28;20777;-78
2023/05/07 09:04:32;;;;;;;12.25;3.97;;;;;;;23.03;53.70;93318.22;5127340;28;20498;-78
2023/05/07 09:07:05;;;;;;;11.25;4.00;;;;;;;23.54;51.21;93321.13;5127324;28;20108;-78
2023/05/07 09:09:33;;;;;;;11.35;4.10;;;;;;;23.86;49.01;93316.09;5127381;28;20536;-78
2023/05/07 09:12:00;;;;;;;6.40;3.15;;;;;;;22.48;49.95;93316.06;5127702;28;20043;-77
2023/05/07 09:14:27;;;;;;;4.47;2.67;;;;;;;22.35;48.82;93310.47;5116579;27;20044;-78
2023/05/07 09:16:54;;;;;;;4.57;2.85;;;;;;;22.77;51.11;93315.19;5124220;27;20104;-78
2023/05/07 09:19:24;;;;;;;9.82;3.42;;;;;;;23.32;49.75;93311.25;5130668;27;20507;-78
2023/05/07 09:21:51;;;;;;;7.85;2.42;;;;;;;23.83;48.04;93309.59;5131244;27;20074;-79
2023/05/07 09:24:20;;;;;;;9.10;2.90;;;;;;;24.09;46.18;93306.53;5130621;27;20107;-80
2023/05/07 09:26:47;;;;;;;4.68;2.40;;;;;;;24.40;44.39;93313.78;5130673;27;20059;-79
2023/05/07 09:29:13;;;;;;;11.40;2.67;;;;;;;24.74;45.42;93300.47;5130580;27;20044;-79
2023/05/07 09:31:40;;;;;;;8.85;2.60;;;;;;;25.07;45.53;93308.19;5130929;27;20043;-78
2023/05/07 09:34:07;;;;;;;6.93;2.65;;;;;;;25.43;44.34;93314.44;5130838;27;20057;-79
2023/05/07 09:36:34;;;;;;;9.77;2.80;;;;;;;25.70;43.06;93308.28;5130856;27;20036;-79
2023/05/07 09:39:01;;;;;;;11.60;2.80;;;;;;;25.93;38.85;93304.81;5130472;27;20047;-78
2023/05/07 09:41:31;;;;;;;5.28;2.60;;;;;;;26.01;40.90;93277.75;5130155;27;20043;-78
2023/05/07 09:44:00;;;;;;;10.23;3.25;;;;;;;26.40;40.26;93299.09;5130126;27;20082;-79
2023/05/07 09:46:30;;;;;;;9.43;2.90;;;;;;;26.64;39.75;93282.06;5130413;27;20083;-79
2023/05/07 09:48:59;;;;;;;5.43;2.90;;;;;;;26.69;38.12;93279.28;5130854;27;20042;-79
2023/05/07 09:51:31;;;;;;;8.32;2.75;;;;;;;26.95;38.14;93266.09;5130817;27;20162;-79
2023/05/07 09:54:00;;;;;;;7.47;2.83;;;;;;;27.12;39.33;93279.59;5129852;27;20055;-79
2023/05/07 09:56:30;;;;;;;7.38;3.13;;;;;;;26.38;36.27;93278.31;5130111;27;20058;-78
2023/05/07 09:58:58;;;;;;;6.45;2.58;;;;;;;26.67;37.25;93273.56;5129901;27;20100;-78
2023/05/07 10:01:26;;;;;;;7.18;3.85;;;;;;;25.55;40.69;93275.25;5129895;27;20130;-78
2023/05/07 10:03:54;;;;;;;5.88;3.05;;;;;;;24.21;42.45;93279.78;5130053;27;20055;-78
2023/05/07 10:06:21;;;;;;;7.75;3.72;;;;;;;24.01;44.47;93275.69;5130230;27;20047;-77
2023/05/07 10:08:49;;;;;;;4.57;2.78;;;;;;;23.28;43.86;93284.03;5129714;27;20062;-78
2023/05/07 10:11:17;;;;;;;5.85;3.22;;;;;;;23.00;44.61;93268.25;5130312;27;20047;-78
2023/05/07 10:13:47;;;;;;;5.70;3.40;;;;;;;22.95;43.36;93272.50;5122888;27;20488;-77
2023/05/07 10:16:14;;;;;;;5.15;2.63;;;;;;;22.34;44.11;93271.47;5121353;27;20094;-77
2023/05/07 10:18:42;;;;;;;11.27;5.40;;;;;;;23.02;44.71;93274.75;5118021;27;20044;-79
2023/05/07 10:21:12;;;;;;;7.60;3.78;;;;;;;22.49;43.47;93270.53;5121627;27;20446;-78
2023/05/07 10:23:40;;;;;;;5.80;3.10;;;;;;;22.51;42.57;93258.72;5129081;27;20137;-78
2023/05/07 10:26:10;;;;;;;4.55;2.95;;;;;;;22.63;40.81;93262.78;5128368;27;20043;-78
2023/05/07 10:28:50;;;;;;;6.43;2.92;;;;;;;22.98;39.89;93237.09;5128942;27;20039;-79
2023/05/07 10:31:32;;;;;;;10.43;3.58;;;;;;;23.78;41.71;93256.47;5129307;27;20487;-79
2023/05/07 10:34:00;;;;;;;7.60;3.08;;;;;;;24.08;39.74;93246.47;5129387;27;20047;-78
2023/05/07 10:36:28;;;;;;;4.78;2.78;;;;;;;23.40;40.19;93228.56;5129287;27;20039;-78
2023/05/07 10:38:55;;;;;;;6.13;2.92;;;;;;;22.41;40.87;93253.63;5129264;27;20051;-77
2023/05/07 10:41:22;;;;;;;12.48;4.50;;;;;;;22.50;42.37;93249.28;5129455;27;20088;-77
2023/05/07 10:43:50;;;;;;;7.22;3.83;;;;;;;22.91;41.52;93250.56;5129514;27;20496;-78
2023/05/07 10:46:19;;;;;;;11.70;3.10;;;;;;;21.42;41.57;93259.16;5129798;27;20076;-77
2023/05/07 10:52:14;;;;;;;9.45;4.30;;;;;;;22.05;44.89;93246.22;5129208;27;20066;-78
2023/05/07 10:54:41;;;;;;;6.05;3.22;;;;;;;22.22;42.70;93235.28;5129151;27;20051;-77
2023/05/07 10:57:38;;;;;;;9.00;3.50;;;;;;;22.73;44.44;93246.13;5129113;27;20057;-78
2023/05/07 11:00:43;;;;;;;6.40;3.00;;;;;;;23.27;44.07;93245.81;5129199;27;20043;-78
2023/05/07 11:03:10;;;;;;;8.60;3.05;;;;;;;23.68;39.94;93249.56;5129360;27;20170;-79
2023/05/07 11:05:37;;;;;;;5.45;3.20;;;;;;;24.09;41.10;93240.16;5128449;27;20183;-79
2023/05/07 11:08:05;;;;;;;9.93;3.13;;;;;;;24.51;40.37;93245.31;5128985;27;20047;-79
2023/05/07 11:10:52;;;;;;;5.70;3.25;;;;;;;23.65;39.14;93250.91;5114886;27;20043;-77
2023/05/07 11:13:40;;;;;;;4.28;2.60;;;;;;;23.38;37.85;93223.63;5126802;27;20383;-78
2023/05/07 11:16:18;;;;;;;4.70;2.88;;;;;;;23.43;39.26;93236.66;5119352;27;20051;-78
2023/05/07 11:18:49;;;;;;;6.50;3.05;;;;;;;23.44;38.19;93242.66;5128264;27;20039;-79
2023/05/07 11:21:33;;;;;;;4.85;2.72;;;;;;;23.64;40.89;93249.38;5128799;27;20593;-78
2023/05/07 11:24:00;;;;;;;4.25;2.45;;;;;;;23.16;37.46;93222.41;5111766;27;20051;-78
2023/05/07 11:26:29;;;;;;;5.85;3.38;;;;;;;22.93;39.20;93237.97;5128195;27;20083;-77
2023/05/07 11:28:56;;;;;;;7.32;3.38;;;;;;;22.79;40.01;93206.50;5128474;27;20130;-77
2023/05/07 11:31:28;;;;;;;7.30;3.13;;;;;;;23.37;41.43;93231.78;5128291;27;21109;-77
2023/05/07 11:33:55;;;;;;;5.38;2.70;;;;;;;23.31;38.40;93225.81;5128374;27;20487;-77
2023/05/07 11:36:24;;;;;;;6.10;2.30;;;;;;;23.29;38.23;93230.56;5123761;27;20047;-77